Time;durP1;ratioP1;P1;durP2;ratioP2;P2;SDS_P1;SDS_P2;PMS_P1;PMS_P2;Temp;Humidity;BMP_temperature;BMP_pressure;BME280_temperature;BME280_humidity;BME280_pressure;Samples;Min_cycle;Max_cycle;Signal;HPM_P1;HPM_P2
2022/02/13 00:00:25;;;;;;;;;;;-0.80;99.90;;;;;;5064583;28;19913;-78
2022/02/13 00:02:51;;;;;;;;;;;-0.80;99.90;;;;;;5058288;28;19947;-78
2022/02/13 00:05:17;;;;;;;;;;;-0.80;99.90;;;;;;5051579;28;19985;-79
2022/02/13 00:07:43;;;;;;;;;;;-0.80;99.90;;;;;;5038980;28;19954;-79
2022/02/13 00:10:10;;;;;;;;;;;-0.90;99.90;;;;;;5057383;28;19913;-79
2022/02/13 00:12:36;;;;;;;;;;;-1.00;99.90;;;;;;5080624;22;19954;-78
2022/02/13 00:15:02;;;;;;;;;;;-1.00;99.90;;;;;;5072257;28;19916;-80
2022/02/13 00:17:28;;;;;;;;;;;-1.00;99.90;;;;;;5085719;28;19920;-78
2022/02/13 00:19:54;;;;;;;;;;;-1.00;99.90;;;;;;5074875;28;20332;-79
2022/02/13 00:22:21;;;;;;;;;;;-1.00;99.90;;;;;;5091609;28;19923;-78
2022/02/13 00:24:47;;;;;;;;;;;-0.90;99.90;;;;;;5069258;28;19965;-79
2022/02/13 00:27:13;;;;;;;;;;;-0.90;99.90;;;;;;5075390;28;19920;-78
2022/02/13 00:29:41;;;;;;;;;;;-0.90;99.90;;;;;;5076005;28;19920;-79
2022/02/13 00:32:07;;;;;;;;;;;-0.90;99.90;;;;;;5075697;28;19920;-79
2022/02/13 00:34:32;;;;;;;;;;;-1.00;99.90;;;;;;5091244;28;19917;-79
2022/02/13 00:36:58;;;;;;;;;;;-1.10;99.90;;;;;;5091034;28;19917;-79
2022/02/13 00:39:24;;;;;;;;;;;-1.10;99.90;;;;;;5091980;28;19978;-79
2022/02/13 00:41:51;;;;;;;;;;;-1.20;99.90;;;;;;5065681;28;19916;-79
2022/02/13 00:44:17;;;;;;;;;;;-1.20;99.90;;;;;;5077298;28;19927;-79
2022/02/13 00:46:42;;;;;;;;;;;-1.10;99.90;;;;;;5067462;28;20168;-78
2022/02/13 00:49:08;;;;;;;;;;;-1.10;99.90;;;;;;5075042;28;19917;-79
2022/02/13 00:51:33;;;;;;;;;;;-1.10;99.90;;;;;;5066254;28;20355;-79
2022/02/13 00:53:59;;;;;;;;;;;-1.00;99.90;;;;;;5068618;28;19962;-79
2022/02/13 00:56:25;;;;;;;;;;;-1.00;99.90;;;;;;5074666;28;19923;-79
2022/02/13 00:58:51;;;;;;;;;;;-1.00;99.90;;;;;;5075314;28;19923;-79
2022/02/13 01:01:17;;;;;;;;;;;-1.00;99.90;;;;;;5075920;28;19963;-78
2022/02/13 01:03:43;;;;;;;;;;;-1.00;99.90;;;;;;5054882;28;19925;-79
2022/02/13 01:06:08;;;;;;;;;;;-1.10;99.90;;;;;;5074171;28;19915;-77
2022/02/13 01:08:34;;;;;;;;;;;-1.20;99.90;;;;;;5075537;28;19927;-78
2022/02/13 01:11:00;;;;;;;;;;;-1.30;99.90;;;;;;5058576;28;19923;-79
2022/02/13 01:13:27;;;;;;;;;;;-1.30;99.90;;;;;;5075392;28;19920;-78
2022/02/13 01:15:53;;;;;;;;;;;-1.40;99.90;;;;;;5084794;28;20294;-79
2022/02/13 01:18:19;;;;;;;;;;;-1.40;99.90;;;;;;5074859;28;19923;-78
2022/02/13 01:20:46;;;;;;;;;;;-1.50;99.90;;;;;;5088612;28;20274;-79
2022/02/13 01:23:11;;;;;;;;;;;-1.50;99.90;;;;;;5089441;28;19928;-78
2022/02/13 01:25:37;;;;;;;;;;;-1.50;99.90;;;;;;5090662;28;19912;-79
2022/02/13 01:28:03;;;;;;;;;;;-1.50;99.90;;;;;;5075088;28;20419;-78
2022/02/13 01:30:28;;;;;;;;;;;-1.40;99.90;;;;;;5075755;28;19913;-79
2022/02/13 01:32:54;;;;;;;;;;;-1.40;99.90;;;;;;5071740;28;20426;-78
2022/02/13 01:35:20;;;;;;;;;;;-1.40;99.90;;;;;;5075326;28;19958;-79
2022/02/13 01:37:46;;;;;;;;;;;-1.50;99.90;;;;;;5073925;28;19928;-79
2022/02/13 01:40:12;;;;;;;;;;;-1.50;99.90;;;;;;5074245;28;19919;-79
2022/02/13 01:42:38;;;;;;;;;;;-1.60;99.90;;;;;;5075436;28;19916;-78
2022/02/13 01:45:04;;;;;;;;;;;-1.60;99.90;;;;;;5073862;28;20069;-79
2022/02/13 01:47:32;;;;;;;;;;;-1.60;99.90;;;;;;5073764;28;19939;-79
2022/02/13 01:49:58;;;;;;;;;;;-1.60;99.90;;;;;;5086886;28;19912;-79
2022/02/13 01:52:25;;;;;;;;;;;-1.60;99.90;;;;;;5053032;28;19924;-79
2022/02/13 01:54:50;;;;;;;;;;;-1.60;99.90;;;;;;5053055;28;19942;-79
2022/02/13 01:57:16;;;;;;;;;;;-1.50;99.90;;;;;;5066169;28;19921;-78
2022/02/13 01:59:42;;;;;;;;;;;-1.50;99.90;;;;;;5071483;28;19916;-79
2022/02/13 02:02:07;;;;;;;;;;;-1.50;99.90;;;;;;5072349;28;19966;-79
2022/02/13 02:04:33;;;;;;;;;;;-1.50;99.90;;;;;;5074384;28;20021;-79
2022/02/13 02:07:01;;;;;;;;;;;-1.50;99.90;;;;;;5072033;28;20289;-79
2022/02/13 02:09:26;;;;;;;;;;;-1.60;99.90;;;;;;5072243;28;20019;-79
2022/02/13 02:11:52;;;;;;;;;;;-1.60;99.90;;;;;;5074809;28;20394;-79
2022/02/13 02:14:18;;;;;;;;;;;-1.60;99.90;;;;;;5074709;28;19916;-79
2022/02/13 02:16:44;;;;;;;;;;;-1.60;99.90;;;;;;5072647;28;19927;-79
2022/02/13 02:19:10;;;;;;;;;;;-1.70;99.90;;;;;;5074937;28;20552;-79
2022/02/13 02:21:45;;;;;;;;;;;-1.70;99.90;;;;;;5058791;28;19917;-79
2022/02/13 02:24:14;;;;;;;;;;;-1.70;99.90;;;;;;5075596;28;20378;-79
2022/02/13 02:26:40;;;;;;;;;;;-1.70;99.90;;;;;;5074044;28;19958;-79
2022/02/13 02:29:06;;;;;;;;;;;-1.80;99.90;;;;;;5075405;28;20211;-78
2022/02/13 02:31:32;;;;;;;;;;;-1.80;99.90;;;;;;5074478;28;19912;-79
2022/02/13 02:33:57;;;;;;;;;;;-1.80;99.90;;;;;;5075139;28;19927;-79
2022/02/13 02:36:23;;;;;;;;;;;-1.80;99.90;;;;;;5070558;28;19917;-79
2022/02/13 02:38:49;;;;;;;;;;;-1.80;99.90;;;;;;5074329;28;19920;-79
2022/02/13 02:41:14;;;;;;;;;;;-1.80;99.90;;;;;;5071585;28;20069;-79
2022/02/13 02:43:40;;;;;;;;;;;-1.80;99.90;;;;;;5084861;28;20400;-79
2022/02/13 02:46:07;;;;;;;;;;;-1.80;99.90;;;;;;5073546;28;20383;-79
2022/02/13 02:48:33;;;;;;;;;;;-1.80;99.90;;;;;;5074111;28;19952;-79
2022/02/13 02:51:00;;;;;;;;;;;-1.80;99.90;;;;;;5071071;28;19924;-79
2022/02/13 02:53:25;;;;;;;;;;;-1.80;99.90;;;;;;5072250;28;19943;-79
2022/02/13 02:55:51;;;;;;;;;;;-1.80;99.90;;;;;;5089890;28;19912;-79
2022/02/13 02:58:17;;;;;;;;;;;-1.80;99.90;;;;;;5075111;28;19921;-79
2022/02/13 03:00:42;;;;;;;;;;;-1.90;99.90;;;;;;5075637;28;19962;-79
2022/02/13 03:03:08;;;;;;;;;;;-1.90;99.90;;;;;;5074195;28;19931;-79
2022/02/13 03:05:33;;;;;;;;;;;-1.90;99.90;;;;;;5074349;28;19924;-79
2022/02/13 03:07:59;;;;;;;;;;;-1.90;99.90;;;;;;5071814;28;20017;-79
2022/02/13 03:10:25;;;;;;;;;;;-1.90;99.90;;;;;;5075508;28;20271;-79
2022/02/13 03:12:50;;;;;;;;;;;-1.90;99.90;;;;;;5067270;28;19913;-79
2022/02/13 03:15:16;;;;;;;;;;;-1.90;99.90;;;;;;5071366;28;19916;-80
2022/02/13 03:17:42;;;;;;;;;;;-1.80;99.90;;;;;;5079907;28;20015;-79
2022/02/13 03:20:09;;;;;;;;;;;-1.80;99.90;;;;;;5078863;28;19917;-79
2022/02/13 03:22:35;;;;;;;;;;;-1.80;99.90;;;;;;5091810;28;20392;-79
2022/02/13 03:25:01;;;;;;;;;;;-1.80;99.90;;;;;;5080715;28;19948;-80
2022/02/13 03:27:27;;;;;;;;;;;-1.90;99.90;;;;;;5058132;28;19917;-79
2022/02/13 03:29:53;;;;;;;;;;;-1.90;99.90;;;;;;5088843;28;19916;-79
2022/02/13 03:32:18;;;;;;;;;;;-2.00;99.90;;;;;;5078467;28;20539;-79
2022/02/13 03:34:44;;;;;;;;;;;-2.00;99.90;;;;;;5078549;28;20336;-80
2022/02/13 03:37:09;;;;;;;;;;;-2.00;99.90;;;;;;5057371;28;20363;-78
2022/02/13 03:39:35;;;;;;;;;;;-2.00;99.90;;;;;;5078757;28;19913;-80
2022/02/13 03:42:02;;;;;;;;;;;-2.00;99.90;;;;;;5079492;28;19916;-79
2022/02/13 03:44:28;;;;;;;;;;;-2.10;99.90;;;;;;5094503;28;19952;-79
2022/02/13 03:46:54;;;;;;;;;;;-2.10;99.90;;;;;;5093930;28;20405;-79
2022/02/13 03:49:19;;;;;;;;;;;-2.20;99.90;;;;;;5095129;28;19976;-79
2022/02/13 03:51:45;;;;;;;;;;;-2.10;99.90;;;;;;5081892;28;19924;-79
2022/02/13 03:54:11;;;;;;;;;;;-2.10;99.90;;;;;;5078646;28;19916;-79
2022/02/13 03:56:36;;;;;;;;;;;-2.20;99.90;;;;;;5069686;28;19919;-80
2022/02/13 03:59:02;;;;;;;;;;;-2.20;99.90;;;;;;5078727;28;19939;-79
2022/02/13 04:01:28;;;;;;;;;;;-2.10;99.90;;;;;;5079322;28;19959;-79
2022/02/13 04:03:54;;;;;;;;;;;-2.10;99.90;;;;;;5059062;28;19954;-79
2022/02/13 04:06:19;;;;;;;;;;;-2.10;99.90;;;;;;5059230;28;19917;-79
2022/02/13 04:08:45;;;;;;;;;;;-2.10;99.90;;;;;;5076271;28;20389;-79
2022/02/13 04:11:11;;;;;;;;;;;-2.10;99.90;;;;;;5074799;28;19917;-79
2022/02/13 04:13:36;;;;;;;;;;;-2.10;99.90;;;;;;5059832;28;20365;-79
2022/02/13 04:16:02;;;;;;;;;;;-2.10;99.90;;;;;;5091501;28;19917;-79
2022/02/13 04:18:28;;;;;;;;;;;-2.10;99.90;;;;;;5077477;28;19927;-79
2022/02/13 04:20:54;;;;;;;;;;;-2.10;99.90;;;;;;5078792;28;19921;-79
2022/02/13 04:23:19;;;;;;;;;;;-2.10;99.90;;;;;;5077890;28;19954;-79
2022/02/13 04:25:45;;;;;;;;;;;-2.10;99.90;;;;;;5077340;28;20386;-79
2022/02/13 04:28:11;;;;;;;;;;;-2.10;99.90;;;;;;5077276;28;19916;-79
2022/02/13 04:30:36;;;;;;;;;;;-2.20;99.90;;;;;;5076942;28;20481;-79
2022/02/13 04:33:02;;;;;;;;;;;-2.20;99.90;;;;;;5042364;28;19917;-79
2022/02/13 04:35:28;;;;;;;;;;;-2.20;99.90;;;;;;5076205;28;19982;-79
2022/02/13 04:37:54;;;;;;;;;;;-2.10;99.90;;;;;;5054768;28;19924;-79
2022/02/13 04:40:20;;;;;;;;;;;-2.10;99.90;;;;;;5074803;28;19913;-79
2022/02/13 04:42:46;;;;;;;;;;;-2.10;99.90;;;;;;5067581;28;19961;-79
2022/02/13 04:45:12;;;;;;;;;;;-2.10;99.90;;;;;;5076052;28;19920;-79
2022/02/13 04:47:38;;;;;;;;;;;-2.00;99.90;;;;;;5074916;28;20290;-79
2022/02/13 04:50:03;;;;;;;;;;;-2.00;99.90;;;;;;5092748;28;20347;-79
2022/02/13 04:52:29;;;;;;;;;;;-2.00;99.90;;;;;;5073748;28;19917;-79
2022/02/13 04:54:55;;;;;;;;;;;-2.00;99.90;;;;;;5091476;28;19916;-79
2022/02/13 04:57:20;;;;;;;;;;;-2.00;99.90;;;;;;5079926;28;19974;-80
2022/02/13 04:59:46;;;;;;;;;;;-2.10;99.90;;;;;;5091218;28;19923;-79
2022/02/13 05:02:12;;;;;;;;;;;-2.20;99.90;;;;;;5075632;28;20378;-79
2022/02/13 05:04:37;;;;;;;;;;;-2.20;99.90;;;;;;5077177;28;19921;-79
2022/02/13 05:07:05;;;;;;;;;;;-2.20;99.90;;;;;;5072837;28;19917;-79
2022/02/13 05:09:31;;;;;;;;;;;-2.20;99.90;;;;;;5090424;28;20305;-79
2022/02/13 05:11:56;;;;;;;;;;;-2.10;99.90;;;;;;5074595;28;19916;-79
2022/02/13 05:14:22;;;;;;;;;;;-2.10;99.90;;;;;;5073914;28;19920;-79
2022/02/13 05:16:48;;;;;;;;;;;-2.10;99.90;;;;;;5076295;28;19924;-79
2022/02/13 05:19:13;;;;;;;;;;;-2.20;99.90;;;;;;5066464;28;19939;-79
2022/02/13 05:21:40;;;;;;;;;;;-2.20;99.90;;;;;;5077505;28;20048;-79
2022/02/13 05:24:06;;;;;;;;;;;-2.20;99.90;;;;;;5075209;28;19999;-79
2022/02/13 05:26:31;;;;;;;;;;;-2.20;99.90;;;;;;5074046;28;19955;-79
2022/02/13 05:28:57;;;;;;;;;;;-2.10;99.90;;;;;;5075743;28;19923;-79
2022/02/13 05:31:29;;;;;;;;;;;-2.20;99.90;;;;;;5088504;28;19920;-79
2022/02/13 05:33:59;;;;;;;;;;;-2.20;99.90;;;;;;5074655;28;19926;-79
2022/02/13 05:36:25;;;;;;;;;;;-2.20;99.90;;;;;;5075272;28;19917;-79
2022/02/13 05:38:51;;;;;;;;;;;-2.30;99.90;;;;;;5075479;28;20362;-79
2022/02/13 05:41:17;;;;;;;;;;;-2.20;99.90;;;;;;5076209;28;19959;-79
2022/02/13 05:43:43;;;;;;;;;;;-2.20;99.90;;;;;;5075749;28;19912;-79
2022/02/13 05:46:09;;;;;;;;;;;-2.20;99.90;;;;;;5074992;28;19923;-79
2022/02/13 05:48:34;;;;;;;;;;;-2.30;99.90;;;;;;5085949;28;19916;-79
2022/02/13 05:51:01;;;;;;;;;;;-2.20;99.90;;;;;;5074083;28;19917;-79
2022/02/13 05:53:27;;;;;;;;;;;-2.20;99.90;;;;;;5073754;28;19920;-79
2022/02/13 05:55:53;;;;;;;;;;;-2.20;99.90;;;;;;5073644;28;19913;-79
2022/02/13 05:58:19;;;;;;;;;;;-2.20;99.90;;;;;;5073333;28;19926;-79
2022/02/13 06:00:44;;;;;;;;;;;-2.20;99.90;;;;;;5074180;28;19966;-79
2022/02/13 06:03:10;;;;;;;;;;;-2.20;99.90;;;;;;5068509;28;19917;-79
2022/02/13 06:05:36;;;;;;;;;;;-2.20;99.90;;;;;;5068136;28;19908;-79
2022/02/13 06:08:01;;;;;;;;;;;-2.20;99.90;;;;;;5072929;28;19971;-79
2022/02/13 06:10:27;;;;;;;;;;;-2.20;99.90;;;;;;5084610;28;19917;-79
2022/02/13 06:12:53;;;;;;;;;;;-2.20;99.90;;;;;;5079049;28;19916;-80
2022/02/13 06:15:18;;;;;;;;;;;-2.20;99.90;;;;;;5087399;22;19947;-78
2022/02/13 06:17:44;;;;;;;;;;;-2.20;99.90;;;;;;5053028;28;19928;-78
2022/02/13 06:20:10;;;;;;;;;;;-2.20;99.90;;;;;;5068974;28;19924;-78
2022/02/13 06:22:35;;;;;;;;;;;-2.20;99.90;;;;;;5066613;28;19923;-78
2022/02/13 06:25:01;;;;;;;;;;;-2.20;99.90;;;;;;5058014;28;19920;-78
2022/02/13 06:27:27;;;;;;;;;;;-2.20;99.90;;;;;;5027418;28;19917;-78
2022/02/13 06:29:53;;;;;;;;;;;-2.30;99.90;;;;;;5023521;28;19913;-78
2022/02/13 06:32:18;;;;;;;;;;;-2.30;99.90;;;;;;5040468;28;19937;-78
2022/02/13 06:34:44;;;;;;;;;;;-2.30;99.90;;;;;;5050084;28;19917;-78
2022/02/13 06:37:09;;;;;;;;;;;-2.30;99.90;;;;;;5051021;28;19920;-78
2022/02/13 06:39:35;;;;;;;;;;;-2.30;99.90;;;;;;5051333;28;19991;-77
2022/02/13 06:42:01;;;;;;;;;;;-2.40;99.90;;;;;;5049170;28;19917;-78
2022/02/13 06:44:27;;;;;;;;;;;-2.40;99.90;;;;;;5051404;28;20374;-78
2022/02/13 06:46:52;;;;;;;;;;;-2.50;99.90;;;;;;5048792;28;19998;-78
2022/02/13 06:49:18;;;;;;;;;;;-2.50;99.90;;;;;;5051752;28;19917;-78
2022/02/13 06:51:43;;;;;;;;;;;-2.40;99.90;;;;;;5033303;28;19917;-78
2022/02/13 06:54:09;;;;;;;;;;;-2.40;99.90;;;;;;5032381;28;19925;-77
2022/02/13 06:56:35;;;;;;;;;;;-2.40;99.90;;;;;;5053347;28;19939;-78
2022/02/13 06:59:01;;;;;;;;;;;-2.40;99.90;;;;;;5002434;28;19927;-78
2022/02/13 07:01:27;;;;;;;;;;;-2.30;99.90;;;;;;5033625;28;19921;-78
2022/02/13 07:03:52;;;;;;;;;;;-2.30;99.90;;;;;;5035559;28;19952;-78
2022/02/13 07:06:18;;;;;;;;;;;-2.30;99.90;;;;;;5048568;28;19962;-78
2022/02/13 07:08:44;;;;;;;;;;;-2.30;99.90;;;;;;5053899;28;20054;-78
2022/02/13 07:11:09;;;;;;;;;;;-2.30;99.90;;;;;;5048144;28;19924;-78
2022/02/13 07:13:35;;;;;;;;;;;-2.30;99.90;;;;;;5045204;28;19913;-78
2022/02/13 07:16:01;;;;;;;;;;;-2.30;99.90;;;;;;5056358;28;19923;-78
2022/02/13 07:18:26;;;;;;;;;;;-2.20;99.90;;;;;;5033860;28;19925;-78
2022/02/13 07:20:52;;;;;;;;;;;-2.20;99.90;;;;;;5034796;28;20421;-78
2022/02/13 07:23:18;;;;;;;;;;;-2.10;99.90;;;;;;5043804;28;19932;-78
2022/02/13 07:25:43;;;;;;;;;;;-2.10;99.90;;;;;;5035227;28;19931;-78
2022/02/13 07:30:53;;;;;;;;;;;-1.90;99.90;;;;;;5047363;28;20047;-78
2022/02/13 07:33:19;;;;;;;;;;;-1.80;99.90;;;;;;5044113;28;20008;-78
2022/02/13 07:35:44;;;;;;;;;;;-1.60;99.90;;;;;;5049752;28;20390;-77
2022/02/13 07:38:10;;;;;;;;;;;-1.40;99.90;;;;;;5052099;28;19978;-78
2022/02/13 07:40:36;;;;;;;;;;;-1.30;99.90;;;;;;5051288;28;19920;-78
2022/02/13 07:43:02;;;;;;;;;;;-1.20;99.90;;;;;;5042189;28;19920;-78
2022/02/13 07:45:28;;;;;;;;;;;-1.10;99.90;;;;;;5049713;28;19962;-78
2022/02/13 07:47:53;;;;;;;;;;;-1.00;99.90;;;;;;5046366;28;19995;-78
2022/02/13 07:50:19;;;;;;;;;;;-0.90;99.90;;;;;;5051262;28;19920;-78
2022/02/13 07:52:44;;;;;;;;;;;-0.80;99.90;;;;;;5015434;28;19917;-78
2022/02/13 07:55:12;;;;;;;;;;;-0.60;99.90;;;;;;5052455;28;20448;-78
2022/02/13 07:57:38;;;;;;;;;;;-0.60;99.90;;;;;;5036723;28;19931;-79
2022/02/13 08:00:04;;;;;;;;;;;-0.50;99.90;;;;;;5050793;28;19917;-78
2022/02/13 08:02:38;;;;;;;;;;;-0.40;99.90;;;;;;5040480;28;20389;-78
2022/02/13 08:05:04;;;;;;;;;;;-0.30;99.90;;;;;;5038912;28;20027;-78
2022/02/13 08:07:29;;;;;;;;;;;-0.20;99.90;;;;;;5038429;28;20393;-78
2022/02/13 08:09:55;;;;;;;;;;;-0.10;99.90;;;;;;5028413;28;19917;-79
2022/02/13 08:12:21;;;;;;;;;;;0.00;99.90;;;;;;5054395;28;19913;-78
2022/02/13 08:14:46;;;;;;;;;;;0.10;99.90;;;;;;5049593;28;19924;-78
2022/02/13 08:17:12;;;;;;;;;;;0.10;99.90;;;;;;5009893;28;19935;-79
2022/02/13 08:19:38;;;;;;;;;;;0.20;99.90;;;;;;5036430;28;20396;-79
2022/02/13 08:22:04;;;;;;;;;;;0.20;99.90;;;;;;5052483;28;19928;-79
2022/02/13 08:24:30;;;;;;;;;;;0.20;99.90;;;;;;5052660;28;19974;-79
2022/02/13 08:26:55;;;;;;;;;;;0.30;99.90;;;;;;5052328;28;19917;-79
2022/02/13 08:29:21;;;;;;;;;;;0.30;99.90;;;;;;5050874;28;19917;-79
2022/02/13 08:31:46;;;;;;;;;;;0.30;99.90;;;;;;5037234;28;19916;-78
2022/02/13 08:34:12;;;;;;;;;;;0.40;99.90;;;;;;5035930;28;19924;-79
2022/02/13 08:36:38;;;;;;;;;;;0.40;99.90;;;;;;5037034;28;19921;-78
2022/02/13 08:39:04;;;;;;;;;;;0.40;99.90;;;;;;5045942;28;19921;-79
2022/02/13 08:41:29;;;;;;;;;;;0.40;99.90;;;;;;5049941;28;19927;-79
2022/02/13 08:43:55;;;;;;;;;;;0.50;99.90;;;;;;5034281;28;19917;-79
2022/02/13 08:46:23;;;;;;;;;;;0.40;99.90;;;;;;5016038;28;19912;-79
2022/02/13 08:48:49;;;;;;;;;;;0.40;99.90;;;;;;5002000;28;20002;-79
2022/02/13 08:51:14;;;;;;;;;;;0.50;99.90;;;;;;5016430;28;19947;-79
2022/02/13 08:53:40;;;;;;;;;;;0.50;99.90;;;;;;5043495;28;20341;-79
2022/02/13 08:56:06;;;;;;;;;;;0.70;99.90;;;;;;5019451;28;19928;-79
2022/02/13 08:58:31;;;;;;;;;;;0.80;99.90;;;;;;5025772;28;19921;-79
2022/02/13 09:00:58;;;;;;;;;;;0.90;99.90;;;;;;5023919;28;19921;-79
2022/02/13 09:03:24;;;;;;;;;;;1.00;99.90;;;;;;5049864;28;19936;-78
2022/02/13 09:05:49;;;;;;;;;;;1.10;99.90;;;;;;5006278;28;19929;-79
2022/02/13 09:08:15;;;;;;;;;;;1.10;99.90;;;;;;5050655;28;19913;-79
2022/02/13 09:10:40;;;;;;;;;;;1.30;99.90;;;;;;5044676;28;19920;-79
2022/02/13 09:13:08;;;;;;;;;;;1.40;99.90;;;;;;5024529;28;19917;-80
2022/02/13 09:15:33;;;;;;;;;;;1.40;99.90;;;;;;5047519;28;19921;-79
2022/02/13 09:17:59;;;;;;;;;;;1.50;99.90;;;;;;5034027;28;19928;-80
2022/02/13 09:20:25;;;;;;;;;;;1.60;99.90;;;;;;5019730;28;19932;-79
2022/02/13 09:22:50;;;;;;;;;;;1.70;99.90;;;;;;5042428;28;19987;-79
2022/02/13 09:25:16;;;;;;;;;;;1.80;99.90;;;;;;5026820;28;19921;-80
2022/02/13 09:27:42;;;;;;;;;;;1.90;99.90;;;;;;5027471;28;19912;-79
2022/02/13 09:30:08;;;;;;;;;;;2.00;99.90;;;;;;5017438;28;20015;-79
2022/02/13 09:32:34;;;;;;;;;;;2.10;99.90;;;;;;5032705;28;19928;-79
2022/02/13 09:35:00;;;;;;;;;;;2.30;99.90;;;;;;5043087;28;19921;-79
2022/02/13 09:37:26;;;;;;;;;;;2.50;99.90;;;;;;5018252;28;19967;-79
2022/02/13 09:39:52;;;;;;;;;;;2.50;99.90;;;;;;5026917;28;19941;-79
2022/02/13 09:42:18;;;;;;;;;;;2.60;99.90;;;;;;5031993;28;19917;-79
2022/02/13 09:44:44;;;;;;;;;;;2.70;99.90;;;;;;5051506;28;20385;-79
2022/02/13 09:47:10;;;;;;;;;;;2.80;99.90;;;;;;5029207;28;19921;-79
2022/02/13 09:49:35;;;;;;;;;;;2.90;99.90;;;;;;5052142;28;20286;-80
2022/02/13 09:52:01;;;;;;;;;;;3.00;99.90;;;;;;5035448;28;20304;-79
2022/02/13 09:54:27;;;;;;;;;;;3.10;99.90;;;;;;5045765;28;19924;-79
2022/02/13 09:57:59;;;;;;;;;;;3.20;99.90;;;;;;5044219;28;19913;-80
2022/02/13 09:59:54;;;;;;;;;;;3.20;99.90;;;;;;5052450;28;20004;-79
2022/02/13 10:02:33;;;;;;;;;;;3.40;99.90;;;;;;5033720;28;19913;-80
2022/02/13 10:04:59;;;;;;;;;;;3.40;99.90;;;;;;5004059;28;19917;-80
2022/02/13 10:07:24;;;;;;;;;;;3.40;99.90;;;;;;5051643;28;19955;-80
2022/02/13 10:09:56;;;;;;;;;;;3.50;99.90;;;;;;5014514;28;19924;-80
2022/02/13 10:12:40;;;;;;;;;;;3.50;99.90;;;;;;5030741;28;19913;-80
2022/02/13 10:15:20;;;;;;;;;;;3.50;99.90;;;;;;5029768;28;19952;-80
2022/02/13 10:17:56;;;;;;;;;;;3.50;99.90;;;;;;5016502;28;20038;-80
2022/02/13 10:20:32;;;;;;;;;;;3.60;99.90;;;;;;5051345;28;19916;-81
2022/02/13 10:23:05;;;;;;;;;;;3.70;99.90;;;;;;5043098;28;19917;-80
2022/02/13 10:25:30;;;;;;;;;;;3.90;99.90;;;;;;5033260;28;19912;-80
2022/02/13 10:27:56;;;;;;;;;;;4.00;99.90;;;;;;5030635;28;19997;-80
2022/02/13 10:30:35;;;;;;;;;;;4.10;99.90;;;;;;5044719;28;20016;-80
2022/02/13 10:33:17;;;;;;;;;;;4.30;99.90;;;;;;5000498;28;19917;-80
2022/02/13 10:36:00;;;;;;;;;;;4.40;99.90;;;;;;5032590;28;19932;-80
2022/02/13 10:38:30;;;;;;;;;;;4.50;99.90;;;;;;5049737;28;20378;-80
2022/02/13 10:41:15;;;;;;;;;;;4.50;99.90;;;;;;5021012;28;20440;-80
2022/02/13 10:43:51;;;;;;;;;;;4.60;99.90;;;;;;5017468;28;19917;-80
2022/02/13 10:46:18;;;;;;;;;;;4.70;99.90;;;;;;5030443;28;19917;-80
2022/02/13 10:48:44;;;;;;;;;;;4.70;99.90;;;;;;5030835;28;20055;-80
2022/02/13 10:51:10;;;;;;;;;;;4.80;99.90;;;;;;5038834;28;20035;-80
2022/02/13 10:53:36;;;;;;;;;;;4.90;99.90;;;;;;5047903;28;19919;-81
2022/02/13 10:56:02;;;;;;;;;;;5.00;99.90;;;;;;5047245;28;19917;-80
2022/02/13 10:58:30;;;;;;;;;;;5.00;99.90;;;;;;5016173;28;19931;-81
2022/02/13 11:00:58;;;;;;;;;;;5.00;99.90;;;;;;5014212;28;19953;-81
2022/02/13 11:03:25;;;;;;;;;;;5.10;99.90;;;;;;5018905;28;19959;-81
2022/02/13 11:05:51;;;;;;;;;;;5.20;99.90;;;;;;5047431;28;19916;-81
2022/02/13 11:08:18;;;;;;;;;;;5.20;99.90;;;;;;5049496;28;19917;-81
2022/02/13 11:10:47;;;;;;;;;;;5.30;99.90;;;;;;5029108;28;19916;-80
2022/02/13 11:13:14;;;;;;;;;;;5.40;99.90;;;;;;5033454;28;19912;-80
2022/02/13 11:15:42;;;;;;;;;;;5.50;99.90;;;;;;5013588;28;19932;-79
2022/02/13 11:18:09;;;;;;;;;;;5.60;99.90;;;;;;5003932;28;19924;-79
2022/02/13 11:20:37;;;;;;;;;;;5.60;99.90;;;;;;5033534;28;19924;-80
2022/02/13 11:23:21;;;;;;;;;;;5.70;99.90;;;;;;5048044;28;19913;-80
2022/02/13 11:25:53;;;;;;;;;;;5.70;99.90;;;;;;5049477;28;19917;-79
2022/02/13 11:28:26;;;;;;;;;;;5.80;99.90;;;;;;5048373;28;19997;-80
2022/02/13 11:30:54;;;;;;;;;;;5.90;99.90;;;;;;5030398;28;19917;-79
2022/02/13 11:33:22;;;;;;;;;;;5.90;99.90;;;;;;4999848;28;19912;-79
2022/02/13 11:35:55;;;;;;;;;;;5.90;99.90;;;;;;5050303;28;19916;-80
2022/02/13 11:38:39;;;;;;;;;;;6.00;99.90;;;;;;5023847;28;19924;-81
2022/02/13 11:41:08;;;;;;;;;;;6.10;99.90;;;;;;5030073;28;19913;-80
2022/02/13 11:43:49;;;;;;;;;;;6.20;99.90;;;;;;5006747;28;19909;-80
2022/02/13 11:46:27;;;;;;;;;;;6.30;99.90;;;;;;5030778;28;19919;-80
2022/02/13 11:48:57;;;;;;;;;;;6.40;99.90;;;;;;5011103;28;19913;-80
2022/02/13 11:51:42;;;;;;;;;;;6.50;99.90;;;;;;5027491;28;19917;-80
2022/02/13 11:54:08;;;;;;;;;;;6.60;99.90;;;;;;5047215;28;20174;-80
2022/02/13 11:56:33;;;;;;;;;;;6.70;99.90;;;;;;5033358;28;20444;-81
2022/02/13 11:58:59;;;;;;;;;;;6.70;99.90;;;;;;5033914;28;19921;-80
2022/02/13 12:01:37;;;;;;;;;;;6.90;99.90;;;;;;5042318;28;19962;-81
2022/02/13 12:04:03;;;;;;;;;;;7.00;99.90;;;;;;5032640;28;20389;-80
2022/02/13 12:06:29;;;;;;;;;;;7.10;99.90;;;;;;5032439;28;19970;-80
2022/02/13 12:08:59;;;;;;;;;;;7.10;99.90;;;;;;5033100;28;19916;-79
2022/02/13 12:11:35;;;;;;;;;;;7.10;99.90;;;;;;5033815;28;19979;-80
2022/02/13 12:14:14;;;;;;;;;;;7.20;99.90;;;;;;4989153;28;19929;-79
2022/02/13 12:16:48;;;;;;;;;;;7.20;99.90;;;;;;4981041;28;20012;-81
2022/02/13 12:19:13;;;;;;;;;;;7.30;99.90;;;;;;4982996;28;20415;-81
2022/02/13 12:21:39;;;;;;;;;;;7.40;99.90;;;;;;4989561;28;20008;-81
2022/02/13 12:24:05;;;;;;;;;;;7.40;99.90;;;;;;4992399;28;19945;-83
2022/02/13 12:26:31;;;;;;;;;;;7.50;99.90;;;;;;5004952;28;19921;-82
2022/02/13 12:29:00;;;;;;;;;;;7.50;99.90;;;;;;4987114;28;19914;-82
2022/02/13 12:31:26;;;;;;;;;;;7.70;99.90;;;;;;4989667;28;19914;-81
2022/02/13 12:33:52;;;;;;;;;;;7.80;99.90;;;;;;4990151;28;19969;-81
2022/02/13 12:36:25;;;;;;;;;;;7.90;99.90;;;;;;4989629;28;19949;-80
2022/02/13 12:38:54;;;;;;;;;;;8.00;99.90;;;;;;4991439;28;19922;-80
2022/02/13 12:41:22;;;;;;;;;;;8.10;99.90;;;;;;5020366;28;19918;-80
2022/02/13 12:43:48;;;;;;;;;;;8.20;99.90;;;;;;4989049;28;19964;-81
2022/02/13 12:46:16;;;;;;;;;;;8.20;99.90;;;;;;4989554;28;20017;-80
2022/02/13 12:48:41;;;;;;;;;;;8.30;99.90;;;;;;4992115;28;20299;-80
2022/02/13 12:51:07;;;;;;;;;;;8.30;99.90;;;;;;4989014;28;19918;-81
2022/02/13 12:53:32;;;;;;;;;;;8.30;99.90;;;;;;4991657;28;19917;-80
2022/02/13 12:55:59;;;;;;;;;;;8.30;99.90;;;;;;4992746;28;19924;-80
2022/02/13 12:58:26;;;;;;;;;;;8.30;99.90;;;;;;5007601;28;20367;-80
2022/02/13 13:00:52;;;;;;;;;;;8.30;99.90;;;;;;4988324;28;19948;-80
2022/02/13 13:03:18;;;;;;;;;;;8.30;99.90;;;;;;5001334;28;19924;-80
2022/02/13 13:05:47;;;;;;;;;;;8.30;99.90;;;;;;4988573;28;21452;-80
2022/02/13 13:08:12;;;;;;;;;;;8.40;99.90;;;;;;5004463;28;19924;-80
2022/02/13 13:10:45;;;;;;;;;;;8.40;99.90;;;;;;4993140;28;19932;-80
2022/02/13 13:13:11;;;;;;;;;;;8.50;99.90;;;;;;4999902;28;19968;-81
2022/02/13 13:15:37;;;;;;;;;;;8.40;99.90;;;;;;4991548;28;19918;-80
2022/02/13 13:18:04;;;;;;;;;;;8.40;99.90;;;;;;5024171;28;19992;-80
2022/02/13 13:20:35;;;;;;;;;;;8.50;99.90;;;;;;4992325;28;20331;-80
2022/02/13 13:23:17;;;;;;;;;;;8.60;99.90;;;;;;4994316;28;20001;-81
2022/02/13 13:25:44;;;;;;;;;;;8.60;99.90;;;;;;4990337;28;20279;-80
2022/02/13 13:28:11;;;;;;;;;;;8.60;99.90;;;;;;4992618;28;19925;-80
2022/02/13 13:30:37;;;;;;;;;;;8.70;99.90;;;;;;4990707;28;19917;-81
2022/02/13 13:33:03;;;;;;;;;;;8.70;99.90;;;;;;4991110;28;20310;-80
2022/02/13 13:35:29;;;;;;;;;;;8.70;99.90;;;;;;4990005;28;19918;-81
2022/02/13 13:37:58;;;;;;;;;;;8.80;99.90;;;;;;4990648;28;19921;-80
2022/02/13 13:40:24;;;;;;;;;;;8.70;99.90;;;;;;4988944;28;20021;-81
2022/02/13 13:43:03;;;;;;;;;;;8.70;99.90;;;;;;5000060;28;19918;-81
2022/02/13 13:45:31;;;;;;;;;;;8.70;99.90;;;;;;4993593;28;19944;-81
2022/02/13 13:47:57;;;;;;;;;;;8.60;99.90;;;;;;4991110;28;19917;-80
2022/02/13 13:50:24;;;;;;;;;;;8.60;99.90;;;;;;4987536;28;19914;-80
2022/02/13 13:52:50;;;;;;;;;;;8.50;99.90;;;;;;4989155;28;19914;-80
2022/02/13 13:55:17;;;;;;;;;;;8.40;99.90;;;;;;4988189;28;20402;-80
2022/02/13 13:57:43;;;;;;;;;;;8.40;99.90;;;;;;4988482;28;19922;-80
2022/02/13 14:00:10;;;;;;;;;;;8.40;99.90;;;;;;4992953;28;19925;-80
2022/02/13 14:02:49;;;;;;;;;;;8.40;99.90;;;;;;4987143;28;20617;-80
2022/02/13 14:05:15;;;;;;;;;;;8.40;99.90;;;;;;4989497;28;20291;-80
2022/02/13 14:07:41;;;;;;;;;;;8.40;99.90;;;;;;4987529;28;20364;-80
2022/02/13 14:10:06;;;;;;;;;;;8.30;99.90;;;;;;4991482;28;20032;-80
2022/02/13 14:12:33;;;;;;;;;;;8.30;99.90;;;;;;5002327;28;20296;-82
2022/02/13 14:14:59;;;;;;;;;;;8.30;99.90;;;;;;5015779;28;20404;-81
2022/02/13 14:17:25;;;;;;;;;;;8.30;99.90;;;;;;4976468;28;19928;-82
2022/02/13 14:19:52;;;;;;;;;;;8.30;99.90;;;;;;4986832;28;19917;-81
2022/02/13 14:22:18;;;;;;;;;;;8.30;99.90;;;;;;4987591;28;19922;-81
2022/02/13 14:24:43;;;;;;;;;;;8.30;99.90;;;;;;5002530;28;19918;-81